Time;durP1;ratioP1;P1;durP2;ratioP2;P2;SDS_P1;SDS_P2;PMS_P1;PMS_P2;Temp;Humidity;BMP_temperature;BMP_pressure;BME280_temperature;BME280_humidity;BME280_pressure;Samples;Min_cycle;Max_cycle;Signal;HPM_P1;HPM_P2
2023/03/07 00:02:52;;;;;;;5.20;4.63;;;22.60;67.20;;;;;;6005488;29;89190;-73
2023/03/07 00:06:01;;;;;;;4.85;4.43;;;22.70;67.30;;;;;;6011921;29;89121;-74
2023/03/07 00:09:03;;;;;;;5.18;4.68;;;22.70;67.30;;;;;;6006609;29;89161;-73
2023/03/07 00:12:06;;;;;;;5.50;4.82;;;22.60;67.20;;;;;;6014289;29;89382;-73
2023/03/07 00:15:10;;;;;;;4.90;4.50;;;22.60;67.20;;;;;;6003796;29;89249;-73
2023/03/07 00:18:13;;;;;;;5.55;5.05;;;22.60;67.20;;;;;;6011017;29;88637;-73
2023/03/07 00:21:17;;;;;;;5.53;5.00;;;22.60;67.20;;;;;;6011202;29;89121;-73
2023/03/07 00:24:19;;;;;;;6.28;5.20;;;22.60;67.20;;;;;;6012134;29;89126;-73
2023/03/07 00:27:21;;;;;;;6.60;6.00;;;22.60;67.20;;;;;;6014267;29;89872;-73
2023/03/07 00:30:23;;;;;;;6.57;5.88;;;22.60;67.10;;;;;;6013862;29;89185;-72
2023/03/07 00:33:27;;;;;;;7.10;6.05;;;22.60;67.10;;;;;;6013484;29;89430;-74
2023/03/07 00:36:30;;;;;;;7.13;6.43;;;22.60;67.10;;;;;;5999204;29;89078;-73
2023/03/07 00:39:32;;;;;;;7.13;6.43;;;22.60;67.10;;;;;;6004365;29;89322;-73
2023/03/07 00:42:34;;;;;;;7.25;6.10;;;22.50;67.10;;;;;;6003895;29;90407;-73
2023/03/07 00:45:36;;;;;;;7.68;6.85;;;22.50;67.10;;;;;;6011268;29;88019;-73
2023/03/07 00:48:40;;;;;;;7.47;6.78;;;22.50;67.10;;;;;;5998151;29;88666;-73
2023/03/07 00:51:42;;;;;;;8.07;7.28;;;22.50;67.10;;;;;;6006422;29;89192;-73
2023/03/07 00:54:44;;;;;;;8.13;7.10;;;22.50;67.00;;;;;;6000141;29;89431;-73
2023/03/07 00:57:46;;;;;;;7.63;6.68;;;22.60;67.10;;;;;;6001733;29;88888;-73
2023/03/07 01:00:48;;;;;;;8.00;7.22;;;22.50;66.90;;;;;;6003762;29;89168;-73
2023/03/07 01:03:53;;;;;;;8.48;7.55;;;22.60;66.90;;;;;;6009875;29;89139;-72
2023/03/07 01:06:55;;;;;;;10.13;7.40;;;22.50;65.20;;;;;;6001005;29;89201;-73
2023/03/07 01:09:57;;;;;;;8.05;7.25;;;22.50;64.90;;;;;;5996429;29;89187;-73
2023/03/07 01:12:59;;;;;;;8.55;7.65;;;22.50;65.50;;;;;;6004915;29;89143;-72
2023/03/07 01:16:07;;;;;;;9.52;7.93;;;22.50;65.90;;;;;;6002594;29;89445;-72
2023/03/07 01:19:12;;;;;;;10.45;8.25;;;22.50;66.10;;;;;;6001552;29;88374;-73
2023/03/07 01:22:14;;;;;;;9.05;7.82;;;22.50;66.10;;;;;;6004292;29;89207;-72
2023/03/07 01:25:17;;;;;;;9.38;8.30;;;22.50;66.10;;;;;;6013276;29;88040;-73
2023/03/07 01:28:19;;;;;;;9.27;8.18;;;22.40;66.20;;;;;;6011718;29;89965;-73
2023/03/07 01:31:21;;;;;;;8.85;7.97;;;22.40;66.20;;;;;;6013086;29;89078;-72
2023/03/07 01:34:25;;;;;;;8.88;7.97;;;22.40;66.30;;;;;;5998881;29;89429;-73
2023/03/07 01:37:27;;;;;;;8.98;8.07;;;22.40;66.30;;;;;;6008599;29;89031;-73
2023/03/07 01:40:29;;;;;;;9.55;8.57;;;22.40;66.20;;;;;;6012603;29;88939;-72
2023/03/07 01:43:34;;;;;;;10.23;8.30;;;22.40;66.20;;;;;;6011709;29;89061;-72
2023/03/07 01:46:45;;;;;;;9.55;8.55;;;22.40;66.30;;;;;;6000314;29;89461;-73
2023/03/07 01:49:48;;;;;;;10.02;9.02;;;22.40;66.20;;;;;;6002703;29;88337;-73
2023/03/07 01:52:53;;;;;;;9.75;8.75;;;22.40;66.40;;;;;;6013320;29;89112;-73
2023/03/07 01:55:56;;;;;;;9.32;8.27;;;22.40;66.40;;;;;;6011757;29;89034;-72
2023/03/07 01:58:58;;;;;;;9.57;8.65;;;22.40;66.40;;;;;;5993057;29;89908;-72
2023/03/07 02:02:06;;;;;;;10.20;9.20;;;22.30;66.40;;;;;;5998400;29;90142;-72
2023/03/07 02:05:14;;;;;;;10.40;8.98;;;22.40;67.30;;;;;;6013174;29;88009;-73
2023/03/07 02:08:18;;;;;;;9.55;8.55;;;22.30;66.40;;;;;;6012970;29;88007;-72
2023/03/07 02:11:21;;;;;;;10.02;9.02;;;22.30;66.40;;;;;;6010814;29;88936;-73
2023/03/07 02:14:23;;;;;;;9.80;8.80;;;22.30;66.40;;;;;;6013562;29;88985;-72
2023/03/07 02:17:26;;;;;;;9.18;8.27;;;22.30;67.20;;;;;;6007053;29;89501;-73
2023/03/07 02:20:40;;;;;;;9.55;8.55;;;22.30;66.30;;;;;;6017350;29;88320;-73
2023/03/07 02:23:50;;;;;;;9.95;9.00;;;22.30;67.20;;;;;;6016799;29;89027;-72
2023/03/07 02:26:53;;;;;;;9.02;8.20;;;22.30;66.40;;;;;;5993778;29;89474;-73
2023/03/07 02:29:55;;;;;;;9.98;8.98;;;22.30;66.40;;;;;;5996104;29;90630;-73
2023/03/07 02:32:57;;;;;;;9.40;8.30;;;22.30;66.30;;;;;;6007752;29;89116;-73
2023/03/07 02:36:05;;;;;;;10.15;8.50;;;22.30;66.40;;;;;;6003394;29;89141;-73
2023/03/07 02:39:07;;;;;;;8.93;8.07;;;22.20;67.20;;;;;;6016271;29;88281;-73
2023/03/07 02:42:15;;;;;;;9.30;8.40;;;22.30;66.30;;;;;;6010534;29;89065;-73
2023/03/07 02:45:19;;;;;;;9.32;8.32;;;22.20;66.30;;;;;;6008203;29;89085;-73
2023/03/07 02:48:21;;;;;;;9.07;8.18;;;22.30;66.40;;;;;;6014409;29;88397;-73
2023/03/07 02:51:23;;;;;;;9.68;8.68;;;22.30;66.30;;;;;;6012256;29;88254;-73
2023/03/07 02:54:25;;;;;;;9.52;8.63;;;22.20;66.20;;;;;;6015119;29;89187;-73
2023/03/07 02:57:28;;;;;;;9.40;8.50;;;22.30;66.20;;;;;;5999512;29;89167;-73
2023/03/07 03:00:31;;;;;;;8.90;8.00;;;22.30;66.20;;;;;;6007328;29;90153;-73
2023/03/07 03:03:33;;;;;;;9.23;8.32;;;22.20;66.20;;;;;;6004748;29;89248;-73
2023/03/07 03:06:35;;;;;;;9.27;8.30;;;22.20;66.20;;;;;;6008352;29;89488;-73
2023/03/07 03:09:37;;;;;;;9.07;8.18;;;22.20;66.20;;;;;;6014981;29;87904;-73
2023/03/07 03:12:41;;;;;;;8.95;8.15;;;22.20;66.20;;;;;;6016579;29;89099;-74
2023/03/07 03:15:43;;;;;;;8.43;7.63;;;22.20;66.20;;;;;;6010425;29;89686;-72
2023/03/07 03:18:45;;;;;;;8.70;7.90;;;22.20;66.20;;;;;;6011866;29;89043;-73
2023/03/07 03:21:47;;;;;;;8.68;7.88;;;22.20;66.30;;;;;;6005357;29;89807;-73
2023/03/07 03:24:49;;;;;;;8.90;8.05;;;22.20;66.20;;;;;;6015360;29;90177;-74
2023/03/07 03:27:53;;;;;;;8.45;7.50;;;22.20;66.20;;;;;;6012855;29;89083;-72
2023/03/07 03:30:59;;;;;;;8.63;7.82;;;22.20;66.20;;;;;;6004730;29;90132;-73
2023/03/07 03:34:01;;;;;;;8.48;7.68;;;22.20;66.10;;;;;;6011849;29;89117;-74
2023/03/07 03:37:03;;;;;;;8.70;7.75;;;22.20;66.20;;;;;;6009411;29;89124;-72
2023/03/07 03:40:12;;;;;;;8.82;7.93;;;22.20;66.20;;;;;;6005093;29;89181;-74
2023/03/07 03:43:16;;;;;;;8.60;7.75;;;22.10;66.20;;;;;;6007199;29;89073;-73
2023/03/07 03:46:19;;;;;;;8.25;7.53;;;22.10;66.20;;;;;;6012259;29;89070;-74
2023/03/07 03:49:21;;;;;;;8.63;7.70;;;22.10;66.20;;;;;;6006028;29;89489;-73
2023/03/07 03:52:23;;;;;;;7.85;7.07;;;22.10;66.20;;;;;;6007850;29;87309;-74
2023/03/07 03:55:25;;;;;;;8.50;7.70;;;22.10;66.20;;;;;;6000678;29;89543;-74
2023/03/07 03:58:29;;;;;;;7.85;7.07;;;22.10;66.20;;;;;;6000847;29;89356;-73
2023/03/07 04:01:31;;;;;;;7.60;6.90;;;22.10;66.20;;;;;;6011364;29;90031;-73
2023/03/07 04:04:33;;;;;;;7.85;7.13;;;22.10;66.20;;;;;;6006058;29;89505;-73
2023/03/07 04:07:35;;;;;;;7.78;7.00;;;22.10;66.10;;;;;;6006970;29;87984;-73
2023/03/07 04:10:37;;;;;;;7.70;6.95;;;22.10;66.20;;;;;;6013761;29;89044;-74
2023/03/07 04:13:41;;;;;;;7.72;7.03;;;22.10;66.10;;;;;;6015239;29;89171;-73
2023/03/07 04:16:43;;;;;;;7.53;6.82;;;22.10;66.20;;;;;;6014553;29;89467;-72
2023/03/07 04:19:45;;;;;;;7.40;6.70;;;22.10;66.20;;;;;;6013719;29;89137;-73
2023/03/07 04:22:47;;;;;;;7.47;6.78;;;22.10;66.20;;;;;;6014289;29;88440;-72
2023/03/07 04:25:49;;;;;;;7.53;6.72;;;22.00;66.10;;;;;;6012071;29;88068;-73
2023/03/07 04:28:53;;;;;;;7.28;6.57;;;22.00;66.10;;;;;;6012759;29;89073;-73
2023/03/07 04:31:55;;;;;;;7.22;6.50;;;22.00;66.40;;;;;;6014287;29;89939;-72
2023/03/07 04:34:57;;;;;;;6.97;6.28;;;22.00;66.10;;;;;;6013531;29;89236;-72
2023/03/07 04:37:59;;;;;;;7.28;6.57;;;22.00;66.20;;;;;;6008923;29;88871;-72
2023/03/07 04:41:01;;;;;;;6.55;5.95;;;22.00;66.10;;;;;;6013873;29;88103;-73
2023/03/07 04:44:05;;;;;;;7.10;6.45;;;22.00;66.10;;;;;;6013398;29;89188;-73
2023/03/07 04:47:07;;;;;;;7.20;6.22;;;22.00;66.00;;;;;;6008354;29;88355;-73
2023/03/07 04:50:10;;;;;;;6.70;6.10;;;22.00;65.90;;;;;;6009070;29;89097;-73
2023/03/07 04:53:12;;;;;;;7.35;6.63;;;22.00;65.80;;;;;;6006010;29;88274;-72
2023/03/07 04:56:15;;;;;;;7.13;6.43;;;22.00;65.80;;;;;;6009644;29;87477;-73
2023/03/07 04:59:18;;;;;;;6.72;6.10;;;22.00;65.80;;;;;;6011466;29;89013;-73
2023/03/07 05:02:20;;;;;;;6.70;6.00;;;22.00;65.80;;;;;;6011702;29;91060;-72
2023/03/07 05:05:22;;;;;;;8.57;6.88;;;22.00;66.70;;;;;;6009309;29;88782;-72
2023/03/07 05:08:24;;;;;;;6.35;5.75;;;22.00;67.40;;;;;;6014260;29;89552;-71
2023/03/07 05:11:26;;;;;;;6.80;6.10;;;22.00;69.60;;;;;;6007466;29;89239;-72
2023/03/07 05:14:30;;;;;;;7.00;5.78;;;22.00;67.70;;;;;;6006572;29;89127;-73
2023/03/07 05:17:32;;;;;;;6.22;5.60;;;22.00;68.80;;;;;;6008848;29;89580;-73
2023/03/07 05:20:34;;;;;;;7.60;6.07;;;22.10;67.60;;;;;;6012108;29;89086;-74
2023/03/07 05:23:36;;;;;;;6.38;5.75;;;22.10;67.20;;;;;;6001494;29;88397;-73
2023/03/07 05:26:39;;;;;;;6.20;5.15;;;22.10;66.90;;;;;;6014999;29;89073;-74
2023/03/07 05:29:42;;;;;;;6.50;5.53;;;22.10;66.60;;;;;;6000820;29;89146;-73
2023/03/07 05:32:45;;;;;;;6.05;5.40;;;22.10;66.40;;;;;;6001340;29;90061;-73
2023/03/07 05:35:47;;;;;;;6.50;5.50;;;22.10;66.20;;;;;;6012436;29;88007;-73
2023/03/07 05:38:49;;;;;;;5.82;5.10;;;22.10;66.20;;;;;;6010756;29;89079;-73
2023/03/07 05:41:51;;;;;;;6.00;4.95;;;22.20;66.20;;;;;;6010812;29;89384;-74
2023/03/07 05:44:54;;;;;;;6.65;5.03;;;22.20;66.10;;;;;;6016001;29;89284;-73
2023/03/07 05:47:56;;;;;;;5.75;5.15;;;22.20;66.00;;;;;;6009816;29;89033;-73
2023/03/07 05:51:00;;;;;;;6.10;5.47;;;22.20;65.90;;;;;;6009690;29;89552;-73
2023/03/07 05:54:02;;;;;;;5.72;5.13;;;22.20;65.90;;;;;;6005387;29;88481;-73
2023/03/07 05:57:04;;;;;;;6.88;4.88;;;22.20;66.00;;;;;;6006433;29;88162;-73
2023/03/07 06:00:10;;;;;;;5.43;4.93;;;22.20;65.90;;;;;;6007584;29;89196;-73
2023/03/07 06:03:12;;;;;;;5.45;4.90;;;22.20;65.90;;;;;;6003292;29;90198;-73
2023/03/07 06:06:14;;;;;;;5.70;4.63;;;22.20;65.90;;;;;;6009497;29;89721;-73
2023/03/07 06:09:16;;;;;;;5.53;5.03;;;22.20;65.80;;;;;;6016944;29;89359;-73
2023/03/07 06:12:18;;;;;;;5.00;4.43;;;22.20;65.80;;;;;;6015398;29;89037;-74
2023/03/07 06:15:22;;;;;;;5.63;4.82;;;22.20;65.80;;;;;;6014722;29;88016;-73
2023/03/07 06:18:26;;;;;;;5.20;4.70;;;22.20;65.70;;;;;;6007580;29;89066;-73
2023/03/07 06:21:28;;;;;;;4.95;4.45;;;22.20;65.70;;;;;;6005430;29;89308;-72
2023/03/07 06:24:30;;;;;;;5.97;4.50;;;22.20;65.70;;;;;;6015730;29;88510;-73
2023/03/07 06:27:33;;;;;;;5.07;4.55;;;22.20;65.70;;;;;;6016060;29;89080;-73
2023/03/07 06:30:36;;;;;;;4.75;4.30;;;22.20;65.70;;;;;;6016269;29;89220;-71
2023/03/07 06:33:38;;;;;;;5.07;4.30;;;22.30;65.70;;;;;;6015878;29;90331;-74
2023/03/07 06:36:41;;;;;;;4.45;4.05;;;22.30;65.70;;;;;;6016191;29;89118;-73
2023/03/07 06:39:43;;;;;;;4.82;4.20;;;22.30;65.70;;;;;;6016222;29;88977;-73
2023/03/07 06:42:45;;;;;;;4.50;4.07;;;22.30;65.60;;;;;;6015853;29;88005;-73
2023/03/07 06:45:48;;;;;;;4.50;4.10;;;22.20;65.60;;;;;;6016647;29;89173;-73
2023/03/07 06:48:51;;;;;;;4.65;4.20;;;22.30;65.60;;;;;;6016065;29;89358;-74
2023/03/07 06:51:53;;;;;;;4.70;4.30;;;22.30;65.60;;;;;;6005961;29;89221;-73
2023/03/07 06:54:55;;;;;;;4.35;3.95;;;22.20;65.60;;;;;;6017103;29;88854;-73
2023/03/07 06:57:57;;;;;;;4.40;4.00;;;22.30;65.70;;;;;;6016673;29;89283;-73
2023/03/07 07:01:00;;;;;;;4.40;4.00;;;22.30;65.60;;;;;;6016099;29;88034;-73
2023/03/07 07:04:02;;;;;;;4.28;3.88;;;22.20;65.50;;;;;;6003351;29;90060;-73
2023/03/07 07:07:05;;;;;;;4.43;4.03;;;22.30;65.70;;;;;;6013613;29;89125;-73
2023/03/07 07:10:09;;;;;;;4.43;3.80;;;22.30;65.60;;;;;;6016549;29;89352;-73
2023/03/07 07:13:11;;;;;;;4.57;4.18;;;22.40;65.70;;;;;;6010772;29;89196;-73
2023/03/07 07:16:14;;;;;;;4.55;4.15;;;22.40;65.60;;;;;;6014055;29;88964;-72
2023/03/07 07:19:16;;;;;;;4.60;4.20;;;22.40;65.70;;;;;;6008000;29;89411;-74
2023/03/07 07:22:18;;;;;;;4.78;4.28;;;22.40;65.60;;;;;;6010461;29;89096;-73
2023/03/07 07:25:21;;;;;;;4.80;4.40;;;22.40;65.60;;;;;;6009394;29;88417;-73
2023/03/07 07:28:23;;;;;;;5.75;4.35;;;22.30;65.50;;;;;;6013836;29;89216;-73
2023/03/07 07:31:26;;;;;;;5.78;4.50;;;22.40;65.70;;;;;;6009213;29;89198;-73
2023/03/07 07:34:28;;;;;;;5.68;4.70;;;22.40;65.70;;;;;;5991981;29;90015;-73
2023/03/07 07:37:30;;;;;;;4.93;4.53;;;22.40;65.70;;;;;;6004313;29;89063;-73
2023/03/07 07:40:32;;;;;;;5.35;4.85;;;22.40;65.70;;;;;;5999974;29;90282;-74
2023/03/07 07:43:34;;;;;;;4.80;4.40;;;22.40;65.70;;;;;;6012858;29;89467;-73
2023/03/07 07:46:38;;;;;;;5.65;5.10;;;22.40;65.70;;;;;;6014777;29;89133;-73
2023/03/07 07:49:40;;;;;;;5.85;5.25;;;22.40;65.70;;;;;;6009652;29;89099;-73
2023/03/07 07:52:42;;;;;;;5.18;4.68;;;22.40;65.70;;;;;;6003559;29;89077;-73
2023/03/07 07:55:44;;;;;;;5.53;5.03;;;22.40;65.70;;;;;;6003920;29;88652;-73
2023/03/07 07:58:46;;;;;;;5.85;5.25;;;22.40;65.70;;;;;;6002187;29;87923;-74
2023/03/07 08:01:50;;;;;;;5.90;5.30;;;22.40;65.70;;;;;;6013720;29;88091;-73
2023/03/07 08:04:52;;;;;;;5.43;4.93;;;22.40;65.70;;;;;;6014385;29;90124;-74
2023/03/07 08:07:55;;;;;;;5.97;5.47;;;22.40;65.80;;;;;;6015052;29;89447;-73
2023/03/07 08:10:57;;;;;;;6.10;5.50;;;22.40;66.70;;;;;;6005518;29;88012;-73
2023/03/07 08:14:00;;;;;;;6.50;5.80;;;22.40;65.70;;;;;;6005369;29;89547;-72
2023/03/07 08:17:03;;;;;;;6.25;5.65;;;22.40;65.80;;;;;;6014509;29;89076;-73
2023/03/07 08:20:08;;;;;;;6.10;5.50;;;22.50;65.90;;;;;;6014115;29;87789;-74
2023/03/07 08:23:10;;;;;;;5.88;5.38;;;22.40;65.70;;;;;;6009500;29;89214;-73
2023/03/07 08:26:13;;;;;;;6.35;5.75;;;22.50;65.80;;;;;;6007490;29;87195;-74
2023/03/07 08:29:15;;;;;;;6.47;5.82;;;22.50;65.80;;;;;;6007212;29;89111;-72
2023/03/07 08:32:18;;;;;;;6.78;6.15;;;22.50;65.80;;;;;;5999042;29;89418;-73
2023/03/07 08:35:21;;;;;;;6.47;5.88;;;22.50;65.80;;;;;;6013362;29;90125;-72
2023/03/07 08:38:23;;;;;;;6.63;6.03;;;22.50;65.70;;;;;;5999215;29;89156;-73
2023/03/07 08:41:25;;;;;;;7.45;6.75;;;22.50;65.70;;;;;;6005489;29;89519;-74
2023/03/07 08:44:28;;;;;;;7.28;6.57;;;22.50;65.70;;;;;;6012442;29;89087;-73
2023/03/07 08:47:31;;;;;;;6.40;5.80;;;22.50;65.70;;;;;;6004344;29;89167;-73
2023/03/07 08:50:33;;;;;;;7.03;6.32;;;22.50;65.70;;;;;;5991724;29;89191;-74
2023/03/07 08:53:36;;;;;;;6.60;6.00;;;22.50;65.70;;;;;;6009494;29;89045;-73
2023/03/07 08:56:39;;;;;;;6.40;5.80;;;22.50;65.70;;;;;;6013427;29;88380;-73
2023/03/07 08:59:41;;;;;;;6.85;6.22;;;22.50;65.70;;;;;;6014648;29;88051;-74
2023/03/07 09:02:44;;;;;;;7.15;6.45;;;22.50;65.80;;;;;;6013143;29;89175;-72
2023/03/07 09:05:46;;;;;;;6.72;6.13;;;22.50;65.80;;;;;;6003290;29;89280;-74
2023/03/07 09:08:49;;;;;;;6.68;6.07;;;22.40;65.70;;;;;;6013266;29;89121;-73
2023/03/07 09:11:51;;;;;;;7.55;6.85;;;22.40;65.70;;;;;;6014185;29;89359;-74
2023/03/07 09:14:53;;;;;;;7.15;6.45;;;22.40;65.70;;;;;;6011971;29;88389;-73
2023/03/07 09:17:57;;;;;;;7.00;6.40;;;22.40;65.70;;;;;;6000471;29;89335;-74
2023/03/07 09:20:59;;;;;;;6.65;6.00;;;22.40;65.70;;;;;;6012432;29;89001;-75
2023/03/07 09:24:01;;;;;;;7.10;6.40;;;22.40;65.70;;;;;;6013645;29;88892;-73
2023/03/07 09:27:04;;;;;;;6.85;6.25;;;22.40;65.70;;;;;;6014782;29;88665;-73
2023/03/07 09:30:07;;;;;;;6.82;6.18;;;22.40;65.70;;;;;;6013819;29;88073;-73
2023/03/07 09:33:11;;;;;;;6.63;5.95;;;22.40;65.70;;;;;;6010395;29;89109;-74
2023/03/07 09:36:14;;;;;;;6.68;6.07;;;22.40;65.70;;;;;;6013057;29;88988;-73
2023/03/07 09:39:16;;;;;;;7.05;6.35;;;22.40;65.70;;;;;;6002028;29;89591;-73
2023/03/07 09:42:25;;;;;;;7.30;6.60;;;22.40;65.70;;;;;;6002320;29;89074;-73
2023/03/07 09:45:38;;;;;;;7.07;6.38;;;22.40;65.60;;;;;;6011577;29;89098;-73
2023/03/07 09:49:08;;;;;;;6.53;5.93;;;22.40;65.50;;;;;;6011585;29;89085;-73
2023/03/07 09:52:14;;;;;;;7.50;6.80;;;22.50;65.60;;;;;;6002674;29;89063;-73
2023/03/07 09:55:19;;;;;;;6.88;6.28;;;22.50;65.60;;;;;;6001492;29;89831;-74
2023/03/07 09:58:24;;;;;;;6.85;6.25;;;22.50;65.60;;;;;;6009083;29;88560;-73
2023/03/07 10:01:30;;;;;;;7.07;6.38;;;22.50;65.60;;;;;;6006437;29;88147;-73
2023/03/07 10:04:42;;;;;;;6.95;6.30;;;22.50;65.50;;;;;;6013326;29;89043;-74
2023/03/07 10:07:44;;;;;;;7.10;6.40;;;22.50;65.50;;;;;;6012817;29;89940;-74
2023/03/07 10:10:56;;;;;;;7.75;6.70;;;22.50;65.40;;;;;;6011832;29;89114;-73
2023/03/07 10:14:12;;;;;;;7.32;6.40;;;22.50;65.50;;;;;;5991024;29;87932;-73
2023/03/07 10:17:24;;;;;;;7.57;6.88;;;22.50;65.50;;;;;;6002595;29;89086;-73
2023/03/07 10:20:41;;;;;;;6.80;6.20;;;22.50;65.50;;;;;;6003688;29;89200;-73
2023/03/07 10:24:13;;;;;;;6.72;6.13;;;22.50;65.50;;;;;;5997472;29;89243;-73
2023/03/07 10:27:16;;;;;;;7.13;6.43;;;22.50;65.50;;;;;;6002308;29;89116;-73
2023/03/07 10:30:19;;;;;;;6.63;6.03;;;22.50;65.50;;;;;;6017601;29;88744;-73
2023/03/07 10:33:22;;;;;;;7.07;6.40;;;22.60;65.50;;;;;;6006031;29;88910;-73
2023/03/07 10:36:34;;;;;;;7.10;6.40;;;22.50;65.40;;;;;;6007262;29;89056;-74
2023/03/07 10:39:42;;;;;;;7.40;6.72;;;22.50;66.30;;;;;;6013992;29;90275;-73
2023/03/07 10:42:44;;;;;;;6.93;6.28;;;22.50;65.40;;;;;;6008354;29;88307;-73
2023/03/07 10:45:46;;;;;;;7.28;6.63;;;22.60;65.50;;;;;;6015900;29;89107;-74
2023/03/07 10:48:50;;;;;;;7.10;6.50;;;22.50;65.40;;;;;;6005314;29;88317;-73
2023/03/07 10:52:00;;;;;;;7.20;6.50;;;22.60;65.40;;;;;;6001981;29;89652;-74
2023/03/07 10:55:35;;;;;;;7.10;6.50;;;22.60;65.40;;;;;;6001798;29;89108;-73
2023/03/07 10:58:37;;;;;;;7.30;6.60;;;22.60;65.50;;;;;;6015809;29;89142;-73
2023/03/07 11:01:54;;;;;;;7.10;6.50;;;22.60;65.50;;;;;;6011306;29;88045;-73
2023/03/07 11:04:56;;;;;;;7.15;6.45;;;22.60;65.40;;;;;;6011669;29;89116;-73
2023/03/07 11:08:01;;;;;;;7.68;6.97;;;22.60;65.50;;;;;;6016397;29;88320;-73
2023/03/07 11:11:05;;;;;;;6.88;6.28;;;22.60;65.50;;;;;;6013735;29;89682;-74
2023/03/07 11:14:09;;;;;;;7.70;7.00;;;22.60;65.50;;;;;;6015193;29;89073;-74
2023/03/07 11:17:19;;;;;;;7.47;6.78;;;22.60;65.40;;;;;;6014809;29;89128;-72
2023/03/07 11:20:25;;;;;;;7.35;6.65;;;22.60;65.40;;;;;;6005588;29;89871;-72
2023/03/07 11:23:30;;;;;;;7.68;6.97;;;22.60;65.40;;;;;;6016486;29;89393;-73
2023/03/07 11:26:38;;;;;;;7.70;7.00;;;22.60;65.40;;;;;;6008455;29;88928;-73
2023/03/07 11:29:40;;;;;;;7.75;7.05;;;22.70;65.40;;;;;;6000297;29;89133;-73
2023/03/07 11:32:47;;;;;;;7.60;6.90;;;22.70;65.40;;;;;;6014804;29;87563;-74
2023/03/07 11:35:58;;;;;;;7.95;7.25;;;22.70;65.50;;;;;;6015342;29;89487;-72
2023/03/07 11:39:10;;;;;;;8.18;7.38;;;22.70;65.50;;;;;;6015567;29;87664;-73
2023/03/07 11:42:17;;;;;;;8.27;7.50;;;22.60;65.50;;;;;;6006831;29;90301;-73
2023/03/07 11:45:33;;;;;;;9.15;8.25;;;22.70;65.50;;;;;;6007669;29;89029;-73
2023/03/07 11:48:52;;;;;;;9.07;8.27;;;22.70;65.50;;;;;;6011311;29;89469;-74
2023/03/07 11:52:03;;;;;;;9.30;8.50;;;22.70;65.50;;;;;;6015095;29;89018;-73
2023/03/07 11:55:19;;;;;;;8.82;8.02;;;22.70;65.50;;;;;;6016023;29;89095;-72
2023/03/07 11:58:53;;;;;;;9.15;8.35;;;22.70;65.50;;;;;;6010188;29;89098;-74
2023/03/07 12:01:58;;;;;;;9.05;8.25;;;22.70;65.50;;;;;;5999481;29;89352;-73
2023/03/07 12:05:16;;;;;;;9.15;8.35;;;22.70;65.50;;;;;;6014684;29;88413;-74
2023/03/07 12:08:44;;;;;;;10.07;9.07;;;22.70;65.50;;;;;;6014298;29;89028;-74
2023/03/07 12:12:04;;;;;;;10.10;9.20;;;22.70;65.50;;;;;;6014329;29;89083;-74
2023/03/07 12:15:26;;;;;;;9.98;9.07;;;22.70;65.50;;;;;;6002441;29;90057;-74
2023/03/07 12:18:56;;;;;;;10.50;9.52;;;22.70;65.50;;;;;;6003266;29;88958;-74
2023/03/07 12:22:25;;;;;;;10.40;9.40;;;22.70;66.40;;;;;;5997463;29;89493;-73
2023/03/07 12:25:33;;;;;;;10.05;9.13;;;22.70;65.50;;;;;;5996682;29;87867;-73
2023/03/07 12:28:43;;;;;;;10.05;9.15;;;22.70;65.50;;;;;;6014585;29;88087;-73
2023/03/07 12:31:50;;;;;;;10.35;9.45;;;22.70;65.50;;;;;;6002853;29;89126;-74
2023/03/07 12:34:55;;;;;;;10.85;9.75;;;22.70;65.50;;;;;;6013983;29;90318;-73
2023/03/07 12:38:04;;;;;;;10.18;9.25;;;22.70;65.50;;;;;;6014694;29;87270;-73
2023/03/07 12:41:21;;;;;;;10.93;9.82;;;22.70;65.60;;;;;;6001621;29;89148;-73
2023/03/07 12:44:35;;;;;;;10.65;9.65;;;22.70;65.60;;;;;;6003363;29;89584;-73
2023/03/07 12:47:51;;;;;;;10.60;9.60;;;22.70;65.70;;;;;;6003465;29;90317;-73
2023/03/07 12:51:00;;;;;;;10.60;9.57;;;22.70;65.70;;;;;;5992777;29;89224;-73
2023/03/07 12:54:09;;;;;;;10.85;9.85;;;22.70;65.70;;;;;;6012576;29;89164;-73
2023/03/07 12:57:17;;;;;;;10.32;9.32;;;22.80;65.70;;;;;;6006010;29;89256;-74
2023/03/07 13:00:23;;;;;;;10.23;9.27;;;22.80;65.70;;;;;;6008053;29;89356;-73
2023/03/07 13:03:46;;;;;;;10.20;9.30;;;22.70;65.70;;;;;;6000060;29;89096;-73
2023/03/07 13:06:48;;;;;;;9.77;8.88;;;22.70;65.70;;;;;;6007090;29;89442;-74
2023/03/07 13:09:53;;;;;;;10.52;9.52;;;22.70;65.70;;;;;;6003652;29;88458;-74
2023/03/07 13:12:55;;;;;;;10.65;9.65;;;22.70;65.70;;;;;;6001019;29;88464;-73
2023/03/07 13:16:12;;;;;;;11.15;10.05;;;22.70;65.80;;;;;;6014660;29;89179;-72
2023/03/07 13:19:50;;;;;;;10.50;9.43;;;22.70;65.70;;;;;;6011518;29;91104;-73
2023/03/07 13:23:11;;;;;;;10.30;9.40;;;22.70;65.90;;;;;;6005597;29;88946;-73
2023/03/07 13:26:22;;;;;;;9.77;8.88;;;22.80;65.90;;;;;;6004506;29;89093;-73
2023/03/07 13:29:57;;;;;;;10.20;9.30;;;22.70;65.80;;;;;;6013032;29;89038;-72
2023/03/07 13:33:02;;;;;;;10.13;9.18;;;22.70;65.90;;;;;;6013920;29;89542;-74
2023/03/07 13:36:04;;;;;;;10.23;9.25;;;22.80;65.90;;;;;;5991801;29;88320;-73
2023/03/07 13:39:39;;;;;;;9.55;8.68;;;22.70;65.90;;;;;;6012855;29;89054;-74
2023/03/07 13:42:48;;;;;;;9.95;9.05;;;22.70;66.10;;;;;;6012183;29;88491;-73
2023/03/07 13:45:53;;;;;;;10.15;9.18;;;22.80;66.00;;;;;;6012689;29;87145;-74
2023/03/07 13:49:03;;;;;;;9.75;8.85;;;22.70;65.90;;;;;;6003062;29;90636;-74
2023/03/07 13:52:35;;;;;;;9.65;8.75;;;22.70;65.90;;;;;;6001963;29;89086;-74
2023/03/07 13:55:45;;;;;;;9.63;8.73;;;22.70;65.90;;;;;;6003270;29;89034;-73
2023/03/07 13:58:52;;;;;;;9.63;8.73;;;22.70;65.90;;;;;;6006591;29;88929;-73
2023/03/07 14:01:59;;;;;;;8.85;8.05;;;22.70;66.40;;;;;;6007448;29;87807;-72
2023/03/07 14:05:03;;;;;;;9.25;8.43;;;22.70;65.90;;;;;;5996253;29;88211;-73
2023/03/07 14:08:10;;;;;;;9.02;8.23;;;22.80;66.00;;;;;;6010550;29;89502;-74
2023/03/07 14:11:21;;;;;;;9.38;8.48;;;22.80;66.10;;;;;;6013760;29;89104;-73
2023/03/07 14:14:44;;;;;;;9.55;8.65;;;22.70;66.00;;;;;;5999740;29;89342;-73
2023/03/07 14:17:58;;;;;;;8.48;7.78;;;22.80;66.10;;;;;;6011662;29;89354;-73
2023/03/07 14:21:09;;;;;;;9.07;8.18;;;22.80;66.10;;;;;;6009432;29;89382;-74
2023/03/07 14:24:41;;;;;;;9.23;8.38;;;22.70;66.00;;;;;;6012221;29;89712;-73
2023/03/07 14:27:56;;;;;;;8.73;7.93;;;22.80;66.10;;;;;;6017788;29;89400;-73
2023/03/07 14:30:59;;;;;;;9.18;8.27;;;22.70;66.00;;;;;;5994629;29;88989;-73
2023/03/07 14:34:04;;;;;;;9.00;8.20;;;22.70;66.00;;;;;;6014978;29;87958;-75
2023/03/07 14:37:12;;;;;;;9.02;8.20;;;22.80;66.10;;;;;;6008996;29;88028;-73
2023/03/07 14:40:33;;;;;;;8.80;8.00;;;22.70;66.00;;;;;;6012069;29;88866;-73
2023/03/07 14:43:48;;;;;;;8.57;7.88;;;22.80;66.00;;;;;;6014614;29;89085;-72
2023/03/07 14:47:01;;;;;;;8.10;7.40;;;22.70;66.00;;;;;;6016716;29;88980;-73
2023/03/07 14:50:12;;;;;;;8.02;7.32;;;22.70;66.00;;;;;;6014408;29;89073;-74
2023/03/07 14:53:20;;;;;;;8.40;7.63;;;22.80;66.10;;;;;;6012413;29;88977;-73
2023/03/07 14:56:26;;;;;;;8.40;7.60;;;22.80;66.10;;;;;;6015874;29;90076;-73
2023/03/07 14:59:28;;;;;;;8.32;7.57;;;22.80;66.10;;;;;;6017235;29;89545;-73
2023/03/07 15:02:30;;;;;;;8.52;7.72;;;22.80;66.10;;;;;;6017434;29;89089;-73
2023/03/07 15:05:34;;;;;;;8.55;7.70;;;22.80;66.10;;;;;;6014818;29;89112;-74
2023/03/07 15:08:38;;;;;;;8.38;7.57;;;22.80;66.10;;;;;;6014789;29;89260;-73
2023/03/07 15:11:42;;;;;;;8.18;7.40;;;22.80;66.10;;;;;;6009859;29;88033;-75
2023/03/07 15:14:46;;;;;;;8.48;7.65;;;22.70;66.90;;;;;;6001017;29;88874;-73
2023/03/07 15:17:49;;;;;;;8.13;7.43;;;22.80;66.10;;;;;;6016679;29;88663;-74
2023/03/07 15:20:53;;;;;;;8.13;7.43;;;22.80;66.10;;;;;;6010941;29;89108;-75
2023/03/07 15:23:58;;;;;;;8.10;7.40;;;22.70;66.00;;;;;;5997076;29;89155;-73
2023/03/07 15:27:01;;;;;;;8.00;7.28;;;22.70;66.00;;;;;;6012210;29;90493;-73
2023/03/07 15:30:04;;;;;;;8.35;7.55;;;22.80;66.10;;;;;;5995505;29;88913;-73
2023/03/07 15:33:15;;;;;;;7.45;6.75;;;22.70;65.90;;;;;;6014421;29;89150;-75
2023/03/07 15:36:26;;;;;;;8.70;7.80;;;22.70;66.00;;;;;;5994719;29;89039;-74
2023/03/07 15:39:33;;;;;;;7.40;6.80;;;22.70;66.00;;;;;;6014487;29;89138;-73
2023/03/07 15:42:48;;;;;;;7.55;6.95;;;22.70;66.00;;;;;;6015048;29;89072;-73
2023/03/07 15:46:04;;;;;;;7.63;6.93;;;22.80;66.10;;;;;;5993745;29;90445;-74
2023/03/07 15:49:06;;;;;;;7.75;7.05;;;22.80;66.10;;;;;;6005974;29;87576;-74
2023/03/07 15:52:20;;;;;;;7.57;6.82;;;22.80;65.90;;;;;;6005609;29;89165;-75
2023/03/07 15:55:26;;;;;;;7.07;6.47;;;22.80;65.90;;;;;;6004928;29;87880;-73
2023/03/07 15:58:30;;;;;;;7.00;6.40;;;22.80;65.90;;;;;;6014716;29;90119;-74
2023/03/07 16:01:32;;;;;;;7.10;6.50;;;22.80;65.90;;;;;;6003184;29;89206;-72
2023/03/07 16:04:38;;;;;;;7.05;6.38;;;22.80;65.90;;;;;;6013925;29;88729;-73
2023/03/07 16:07:41;;;;;;;6.95;6.25;;;22.80;65.90;;;;;;6013938;29;88239;-72